createdAt,value
2023-05-25T00:01:24.576Z,15.85
2023-05-25T00:06:27.881Z,14.80
2023-05-25T00:11:29.562Z,15.48
2023-05-25T00:16:31.868Z,16.17
2023-05-25T00:21:38.339Z,10.55
2023-05-25T00:26:40.105Z,17.38
2023-05-25T00:31:41.839Z,15.48
2023-05-25T00:36:43.566Z,18.40
2023-05-25T00:41:46.604Z,17.15
2023-05-25T00:46:50.804Z,15.35
2023-05-25T00:51:53.083Z,9.75
2023-05-25T00:57:04.384Z,12.15
2023-05-25T01:02:09.477Z,15.77
2023-05-25T01:07:17.779Z,13.57
2023-05-25T01:12:22.538Z,16.63
2023-05-25T01:17:24.322Z,13.27
2023-05-25T01:22:32.670Z,15.25
2023-05-25T01:27:46.908Z,9.35
2023-05-25T01:32:49.613Z,17.13
2023-05-25T01:37:52.577Z,13.40
2023-05-25T01:42:54.366Z,14.93
2023-05-25T01:48:24.031Z,11.45
2023-05-25T01:53:31.481Z,12.10
2023-05-25T01:58:38.771Z,12.60
2023-05-25T02:03:42.036Z,17.58
2023-05-25T02:08:45.782Z,15.95
2023-05-25T02:13:47.539Z,12.52
2023-05-25T02:18:50.919Z,21.30
2023-05-25T02:23:54.059Z,19.92
2023-05-25T02:28:55.712Z,16.63
2023-05-25T02:33:57.538Z,20.52
2023-05-25T02:39:01.433Z,19.02
2023-05-25T02:44:03.812Z,15.35
2023-05-25T02:49:06.505Z,16.98
2023-05-25T02:54:09.741Z,12.27
2023-05-25T02:59:11.464Z,16.10
2023-05-25T03:04:14.276Z,12.55
2023-05-25T03:09:16.215Z,13.98
2023-05-25T03:14:18.056Z,12.50
2023-05-25T03:19:27.322Z,11.77
2023-05-25T03:24:29.207Z,12.02
2023-05-25T03:29:34.973Z,13.88
2023-05-25T03:34:37.497Z,8.73
2023-05-25T03:39:40.858Z,10.95
2023-05-25T03:44:42.617Z,14.38
2023-05-25T03:49:45.138Z,17.75
2023-05-25T03:54:47.912Z,14.13
2023-05-25T03:59:49.554Z,15.25
2023-05-25T04:04:52.093Z,14.43
2023-05-25T04:09:53.796Z,19.55
2023-05-25T04:14:56.470Z,21.27
2023-05-25T04:19:59.879Z,20.98
2023-05-25T04:25:02.363Z,14.50
2023-05-25T04:30:05.058Z,19.65
2023-05-25T04:35:28.465Z,9.85
2023-05-25T04:40:33.259Z,15.30
2023-05-25T04:45:35.519Z,15.55
2023-05-25T04:50:40.196Z,13.73
2023-05-25T04:55:43.102Z,13.95
2023-05-25T05:00:45.580Z,14.25
2023-05-25T05:05:47.544Z,15.55
2023-05-25T05:10:54.909Z,14.45
2023-05-25T05:15:58.560Z,9.13
2023-05-25T05:21:00.510Z,16.95
2023-05-25T05:26:04.942Z,12.73
2023-05-25T05:31:07.559Z,9.93
2023-05-25T05:36:10.287Z,11.90
2023-05-25T05:41:14.513Z,7.38
2023-05-25T05:46:21.150Z,11.43
2023-05-25T05:51:22.859Z,11.70
2023-05-25T05:56:24.643Z,8.45
2023-05-25T06:01:26.335Z,13.95
2023-05-25T06:06:28.661Z,7.43
2023-05-25T06:11:31.450Z,9.60
2023-05-25T06:16:33.420Z,8.02
2023-05-25T06:21:35.212Z,6.57
2023-05-25T06:26:36.885Z,9.52
2023-05-25T06:31:38.757Z,8.13
2023-05-25T06:36:41.784Z,12.68
2023-05-25T06:41:44.916Z,9.55
2023-05-25T06:46:52.685Z,8.80
2023-05-25T06:51:54.428Z,7.47
2023-05-25T06:56:56.183Z,9.07
2023-05-25T07:01:59.163Z,10.48
2023-05-25T07:07:01.107Z,9.48
2023-05-25T07:12:02.787Z,7.65
2023-05-25T07:17:04.632Z,6.60
2023-05-25T07:22:06.341Z,9.82
2023-05-25T07:27:08.332Z,6.32
2023-05-25T07:32:09.977Z,7.35
2023-05-25T07:37:11.650Z,6.05
2023-05-25T07:42:13.311Z,8.90
2023-05-25T07:47:15.044Z,8.48
2023-05-25T07:52:16.838Z,8.82
2023-05-25T07:57:18.557Z,9.55
2023-05-25T08:02:20.292Z,7.53
2023-05-25T08:07:22.029Z,6.88
2023-05-25T08:12:38.501Z,6.43
2023-05-25T08:17:45.783Z,6.13
2023-05-25T08:22:47.502Z,5.85
2023-05-25T08:27:49.261Z,5.47
2023-05-25T08:32:51.169Z,7.40
2023-05-25T08:37:52.859Z,4.55
2023-05-25T08:42:54.819Z,4.90
2023-05-25T08:48:01.097Z,5.68
2023-05-25T08:53:08.307Z,7.00
2023-05-25T08:58:19.836Z,5.05
2023-05-25T09:03:22.233Z,3.90
2023-05-25T09:08:25.012Z,4.03
2023-05-25T09:13:26.868Z,7.70
2023-05-25T09:18:28.669Z,5.25
2023-05-25T09:23:30.712Z,4.93
2023-05-25T09:28:32.394Z,7.07
2023-05-25T09:33:36.822Z,8.70
2023-05-25T09:38:40.515Z,13.68
2023-05-25T09:43:48.904Z,7.28
2023-05-25T09:49:00.490Z,6.20
2023-05-25T09:54:04.130Z,6.78
2023-05-25T09:59:06.641Z,4.53
2023-05-25T10:04:08.359Z,3.85
2023-05-25T10:09:14.024Z,10.23
2023-05-25T10:14:22.646Z,10.57
2023-05-25T10:19:57.278Z,5.97
2023-05-25T10:25:29.126Z,4.28
2023-05-25T10:30:32.729Z,8.50
2023-05-25T10:35:46.629Z,8.63
2023-05-25T10:40:51.530Z,9.10
2023-05-25T10:45:55.508Z,11.30
2023-05-25T10:50:57.291Z,6.07
2023-05-25T10:56:04.866Z,5.22
2023-05-25T11:01:12.166Z,11.15
2023-05-25T11:06:15.807Z,9.85
2023-05-25T11:11:17.776Z,7.68
2023-05-25T11:16:20.196Z,9.88
2023-05-25T11:21:27.730Z,5.85
2023-05-25T11:26:31.030Z,5.68
2023-05-25T11:31:39.634Z,4.28
2023-05-25T11:36:44.131Z,5.95
2023-05-25T11:41:52.075Z,8.65
2023-05-25T11:46:57.599Z,5.55
2023-05-25T11:52:00.189Z,5.00
2023-05-25T11:57:02.704Z,5.30
2023-05-25T12:02:04.807Z,7.90
2023-05-25T12:07:07.937Z,7.68
2023-05-25T12:12:09.660Z,9.50
2023-05-25T12:17:11.613Z,9.15
2023-05-25T12:22:14.273Z,7.78
2023-05-25T12:27:20.586Z,7.85
2023-05-25T12:32:22.298Z,6.75
2023-05-25T12:37:24.216Z,4.38
2023-05-25T12:42:31.319Z,11.52
2023-05-25T12:47:33.006Z,3.80
2023-05-25T12:52:46.553Z,5.47
2023-05-25T12:57:52.701Z,4.88
2023-05-25T13:02:54.946Z,4.53
2023-05-25T13:07:58.249Z,5.03
2023-05-25T13:13:00.820Z,10.07
2023-05-25T13:18:02.810Z,6.72
2023-05-25T13:23:06.051Z,8.25
2023-05-25T13:28:07.696Z,5.57
2023-05-25T13:33:09.695Z,9.05
2023-05-25T13:38:11.558Z,4.60
2023-05-25T13:43:13.209Z,5.70
2023-05-25T13:48:14.938Z,6.53
2023-05-25T13:53:16.936Z,9.48
2023-05-25T13:58:18.584Z,5.90
2023-05-25T14:03:20.429Z,19.63
2023-05-25T14:08:22.538Z,5.95
2023-05-25T14:13:24.197Z,5.63
2023-05-25T14:18:25.877Z,7.65
2023-05-25T14:23:27.539Z,6.20
2023-05-25T14:28:29.180Z,11.82
2023-05-25T14:33:30.869Z,4.38
2023-05-25T14:38:32.815Z,5.25
2023-05-25T14:43:35.009Z,7.28
2023-05-25T14:48:36.718Z,4.82
2023-05-25T14:53:38.595Z,8.77
2023-05-25T14:58:40.444Z,4.85
2023-05-25T15:03:42.308Z,4.88
2023-05-25T15:08:44.063Z,3.88
2023-05-25T15:13:46.108Z,12.57
2023-05-25T15:18:47.756Z,5.78
2023-05-25T15:23:49.576Z,10.50
2023-05-25T15:28:51.217Z,6.93
2023-05-25T15:33:58.225Z,5.25
2023-05-25T15:39:00.783Z,7.93
2023-05-25T15:44:02.475Z,4.82
2023-05-25T15:49:10.771Z,10.65
2023-05-25T15:54:14.743Z,8.82
2023-05-25T15:59:16.680Z,4.53
2023-05-25T16:04:19.334Z,5.97
2023-05-25T16:09:21.066Z,6.82
2023-05-25T16:14:22.717Z,7.03
2023-05-25T16:19:24.698Z,8.95
2023-05-25T16:24:27.003Z,6.78
2023-05-25T16:29:29.242Z,6.20
2023-05-25T16:34:31.178Z,7.03
2023-05-25T16:39:33.451Z,8.43
2023-05-25T16:44:35.118Z,6.75
2023-05-25T16:49:36.760Z,5.32
2023-05-25T16:54:38.741Z,10.02
2023-05-25T16:59:41.021Z,7.85
2023-05-25T17:04:42.732Z,9.23
2023-05-25T17:09:44.374Z,11.35
2023-05-25T17:14:48.329Z,7.25
2023-05-25T17:19:49.998Z,7.90
2023-05-25T17:24:51.661Z,8.75
2023-05-25T17:29:53.308Z,8.55
2023-05-25T17:34:54.962Z,6.63
2023-05-25T17:39:56.666Z,11.60
2023-05-25T17:44:58.359Z,9.27
2023-05-25T17:49:59.990Z,8.18
2023-05-25T17:55:01.716Z,8.80
2023-05-25T18:00:04.209Z,5.03
2023-05-25T18:05:13.997Z,7.35
2023-05-25T18:10:15.819Z,8.18
2023-05-25T18:15:17.801Z,6.10
2023-05-25T18:20:19.566Z,11.82
2023-05-25T18:25:21.371Z,10.50
2023-05-25T18:30:23.021Z,12.10
2023-05-25T18:35:24.728Z,9.30
2023-05-25T18:40:26.365Z,6.50
2023-05-25T18:45:28.118Z,5.03
2023-05-25T18:50:29.753Z,6.03
2023-05-25T18:55:31.394Z,7.35
2023-05-25T19:00:33.122Z,10.88
2023-05-25T19:05:35.004Z,7.88
2023-05-25T19:10:36.684Z,6.63
2023-05-25T19:15:38.308Z,7.15
2023-05-25T19:20:39.974Z,7.20
2023-05-25T19:25:41.613Z,6.53
2023-05-25T19:30:43.296Z,8.55
2023-05-25T19:35:45.345Z,6.95
2023-05-25T19:40:47.230Z,9.50
2023-05-25T19:45:48.914Z,7.80
2023-05-25T19:50:50.694Z,4.07
2023-05-25T19:55:52.410Z,7.40
2023-05-25T20:00:54.173Z,10.13
2023-05-25T20:05:56.414Z,8.52
2023-05-25T20:10:58.112Z,9.80
2023-05-25T20:15:59.852Z,12.48
2023-05-25T20:21:01.608Z,6.00
2023-05-25T20:26:03.242Z,11.32
2023-05-25T20:31:06.486Z,7.15
2023-05-25T20:36:08.153Z,7.35
2023-05-25T20:41:09.834Z,7.55
2023-05-25T20:46:11.604Z,7.35
2023-05-25T20:51:14.343Z,8.15
2023-05-25T20:56:16.205Z,9.98
2023-05-25T21:01:17.886Z,4.10
2023-05-25T21:06:19.636Z,8.20
2023-05-25T21:11:22.093Z,7.70
2023-05-25T21:16:23.772Z,6.85
2023-05-25T21:21:25.727Z,6.20
2023-05-25T21:26:31.049Z,13.82
2023-05-25T21:31:32.808Z,5.38
2023-05-25T21:36:34.550Z,8.60
2023-05-25T21:41:36.230Z,5.88
2023-05-25T21:46:38.835Z,6.82
2023-05-25T21:51:40.545Z,5.90
2023-05-25T21:56:42.253Z,7.40
2023-05-25T22:01:43.958Z,8.75
2023-05-25T22:06:45.701Z,6.75
2023-05-25T22:11:47.344Z,11.25
2023-05-25T22:16:49.035Z,7.45
2023-05-25T22:21:50.746Z,9.88
2023-05-25T22:26:52.592Z,12.05
2023-05-25T22:31:54.255Z,12.77
2023-05-25T22:36:56.089Z,10.45
2023-05-25T22:41:57.736Z,7.43
2023-05-25T22:46:59.382Z,10.02
2023-05-25T22:52:01.142Z,7.90
2023-05-25T22:57:02.937Z,9.07
2023-05-25T23:02:04.946Z,9.90
2023-05-25T23:07:06.641Z,9.48
2023-05-25T23:12:08.361Z,10.93
2023-05-25T23:17:10.485Z,13.35
2023-05-25T23:22:12.132Z,10.73
2023-05-25T23:27:13.821Z,8.38
2023-05-25T23:32:15.537Z,9.48
2023-05-25T23:37:17.289Z,9.02
2023-05-25T23:42:18.929Z,10.27
2023-05-25T23:47:20.564Z,11.52
2023-05-25T23:52:22.210Z,8.30
2023-05-25T23:57:23.864Z,10.10
